Terminal Aerodrome Forecast
Issued by NWS

Home | Current Version | Previous Version | Text Only | Print | Product List | Glossary On
Versions: 1 2 3 4 5 6 7 8 9 10 11 12 13 14 15 16
303
FTUS43 KOAX 241830 AAA
TAFSNY
TAF AMD
KSNY 241830Z 2419/2518 35022G32KT P6SM BKN015 OVC035
      TEMPO 2419/2422 1SM -SN OVC010
     FM250600 34015G25KT P6SM -SN BKN015 OVC025=

USA.gov is the U.S. government's official web portal to all federal, state and local government web resources and services.